createdAt,value
2018-01-06T10:32:02.804Z,8.60
2018-01-06T10:33:02.817Z,7.40
2018-01-06T10:34:02.789Z,12.00
2018-01-06T10:35:02.777Z,7.80
2018-01-06T10:36:02.768Z,10.70
2018-01-06T10:37:02.758Z,9.10
2018-01-06T10:38:02.757Z,8.70
2018-01-06T10:39:02.773Z,8.50
2018-01-06T10:40:02.736Z,8.90
2018-01-06T10:41:02.733Z,8.10
2018-01-06T10:42:02.728Z,7.90
2018-01-06T10:43:02.712Z,9.40
2018-01-06T10:44:02.702Z,6.50
2018-01-06T10:45:02.728Z,6.70
2018-01-06T10:46:02.691Z,7.00
2018-01-06T10:47:02.685Z,7.10
2018-01-06T10:48:02.678Z,6.90
2018-01-06T10:49:02.670Z,6.10
2018-01-06T10:50:02.665Z,6.20
2018-01-06T10:53:01.501Z,6.80
2018-01-06T10:54:01.487Z,8.70
2018-01-06T10:55:01.482Z,5.10
2018-01-06T10:56:44.749Z,7.30
2018-01-06T10:57:44.709Z,6.00
2018-01-06T10:59:14.195Z,7.10
2018-01-06T11:00:14.179Z,5.70
2018-01-06T11:01:14.164Z,6.80
2018-01-06T11:02:14.188Z,7.50
2018-01-06T11:03:14.150Z,8.10
2018-01-06T11:04:14.147Z,5.60
2018-01-06T11:05:14.142Z,5.70
2018-01-06T11:06:14.136Z,6.50
2018-01-06T11:07:14.152Z,5.50
2018-01-06T11:08:14.135Z,5.40
2018-01-06T11:09:14.107Z,4.60
2018-01-06T11:10:14.100Z,5.40
2018-01-06T11:11:14.099Z,6.00
2018-01-06T11:12:14.111Z,5.40
2018-01-06T11:13:14.080Z,5.80
2018-01-06T11:14:14.069Z,4.40
2018-01-06T11:15:14.071Z,6.10
2018-01-06T11:16:14.063Z,3.90
2018-01-06T11:17:14.101Z,7.60
2018-01-06T11:18:14.049Z,6.50
2018-01-06T11:19:14.037Z,4.10
2018-01-06T11:20:14.036Z,5.00
2018-01-06T11:21:14.029Z,6.40
2018-01-06T11:22:14.018Z,4.90
2018-01-06T11:23:14.037Z,4.80
2018-01-06T11:24:14.011Z,5.20
2018-01-06T11:25:14.001Z,5.90
2018-01-06T11:26:13.991Z,4.50
2018-01-06T11:27:14.008Z,5.30
2018-01-06T11:28:13.981Z,5.20
2018-01-06T11:29:13.975Z,4.50
2018-01-06T11:30:13.964Z,4.50
2018-01-06T11:31:13.959Z,4.70
2018-01-06T11:32:13.949Z,6.20
2018-01-06T11:33:46.092Z,2.80
2018-01-06T11:34:46.054Z,6.10
2018-01-06T11:35:46.046Z,4.70
2018-01-06T11:36:46.030Z,5.10
2018-01-06T11:37:46.053Z,3.90
2018-01-06T11:38:46.020Z,3.60
2018-01-06T11:39:46.010Z,3.80
2018-01-06T11:40:45.998Z,4.70
2018-01-06T11:41:45.984Z,3.80
2018-01-06T11:43:17.498Z,5.00
2018-01-06T11:44:17.477Z,4.40
2018-01-06T11:45:17.484Z,4.30
2018-01-06T11:46:17.466Z,4.40
2018-01-06T11:47:17.457Z,5.70
2018-01-06T11:48:17.482Z,4.20
2018-01-06T11:49:17.446Z,3.80
2018-01-06T11:54:21.612Z,4.90
2018-01-06T11:55:21.585Z,5.00
2018-01-06T11:56:21.572Z,3.80
2018-01-06T11:57:21.565Z,4.00
2018-01-06T11:58:21.558Z,5.40
2018-01-06T12:01:29.264Z,4.70
2018-01-06T12:02:29.225Z,4.60
2018-01-06T12:03:29.215Z,6.70
2018-01-06T12:04:29.199Z,5.30
2018-01-06T12:05:29.220Z,4.30
2018-01-06T12:06:29.172Z,3.60
2018-01-06T12:07:29.158Z,3.40
2018-01-06T12:08:29.151Z,4.80
2018-01-06T12:09:29.145Z,4.60
2018-01-06T12:10:29.140Z,3.70
2018-01-06T12:11:29.155Z,4.60
2018-01-06T12:12:29.118Z,4.00
2018-01-06T12:13:29.102Z,4.90
2018-01-06T12:14:29.088Z,7.80
2018-01-06T12:15:29.081Z,64.00
2018-01-06T13:35:39.122Z,8.70
2018-01-06T13:36:29.413Z,7.20
2018-01-06T13:37:29.415Z,11.70
2018-01-06T13:38:29.389Z,8.50
2018-01-06T13:39:29.577Z,8.40
2018-01-06T13:40:29.348Z,11.20
2018-01-06T13:41:29.358Z,8.90
2018-01-06T13:42:29.328Z,8.90
2018-01-06T13:43:29.347Z,12.00
2018-01-06T13:44:29.339Z,10.00
2018-01-06T13:45:29.315Z,8.10
2018-01-06T13:46:29.301Z,13.70
2018-01-06T13:47:29.285Z,11.60
2018-01-06T13:48:29.256Z,10.40
2018-01-06T13:49:29.263Z,11.90
2018-01-06T13:50:29.229Z,10.60
2018-01-06T13:51:29.220Z,10.30
2018-01-06T13:52:29.286Z,11.80
2018-01-06T13:53:29.200Z,10.20
2018-01-06T13:54:29.204Z,9.40
2018-01-06T13:55:29.166Z,11.20
2018-01-06T13:56:29.162Z,12.30
2018-01-06T13:57:29.166Z,10.20
2018-01-06T13:58:29.124Z,11.60
2018-01-06T13:59:29.168Z,10.50
2018-01-06T14:00:29.139Z,9.50
2018-01-06T14:01:29.126Z,11.80
2018-01-06T14:02:29.076Z,12.20
2018-01-06T14:03:29.064Z,9.80
2018-01-06T14:04:29.073Z,11.60
2018-01-06T14:05:29.092Z,10.60
2018-01-06T14:06:29.041Z,12.00
2018-01-06T14:07:29.057Z,11.00
2018-01-06T14:08:29.016Z,9.20
2018-01-06T14:09:29.014Z,9.70
2018-01-06T14:10:29.012Z,9.30
2018-01-06T14:11:28.975Z,11.00
2018-01-06T14:12:28.957Z,13.50
2018-01-06T14:13:28.960Z,11.20
2018-01-06T14:14:28.932Z,11.80
2018-01-06T14:15:28.939Z,10.70
2018-01-06T14:16:28.932Z,9.90
2018-01-06T14:17:28.908Z,12.40
2018-01-06T14:18:28.991Z,11.10
2018-01-06T14:19:28.937Z,14.30
2018-01-06T14:20:28.865Z,10.90
2018-01-06T14:21:28.854Z,10.10
2018-01-06T14:22:28.926Z,11.60
2018-01-06T14:23:28.820Z,12.40
2018-01-06T14:24:28.820Z,10.70
2018-01-06T14:25:28.893Z,11.60
2018-01-06T14:26:28.786Z,9.20
2018-01-06T14:27:28.756Z,10.50
2018-01-06T14:28:28.799Z,11.00
2018-01-06T14:29:28.758Z,10.50
2018-01-06T14:30:28.736Z,10.50
2018-01-06T14:31:28.723Z,11.10
2018-01-06T14:32:28.733Z,11.20
2018-01-06T14:33:28.709Z,11.20
2018-01-06T14:34:28.739Z,12.90
2018-01-06T14:35:28.668Z,12.60
2018-01-06T14:36:39.212Z,11.90
2018-01-06T14:37:29.875Z,9.40
2018-01-06T14:38:28.612Z,12.60
2018-01-06T14:39:28.645Z,13.80
2018-01-06T14:40:28.635Z,12.80
2018-01-06T14:41:28.615Z,11.20
2018-01-06T14:42:28.565Z,10.80
2018-01-06T14:43:37.518Z,12.40
2018-01-06T14:44:29.001Z,10.60
2018-01-06T14:45:28.559Z,12.60
2018-01-06T14:46:28.674Z,11.30
2018-01-06T14:47:28.504Z,12.50
2018-01-06T14:48:28.595Z,13.40
2018-01-06T14:49:28.522Z,14.60
2018-01-06T14:50:28.525Z,13.20
2018-01-06T14:51:28.643Z,13.20
2018-01-06T14:52:28.445Z,16.70
2018-01-06T14:53:28.440Z,10.90
2018-01-06T14:54:28.416Z,10.80
2018-01-06T14:55:28.405Z,12.50
2018-01-06T14:56:28.399Z,11.30
2018-01-06T14:57:28.413Z,12.80
2018-01-06T14:58:28.354Z,13.00
2018-01-06T14:59:28.344Z,11.90
2018-01-06T15:00:28.359Z,12.30
2018-01-06T15:01:28.335Z,10.60
2018-01-06T15:02:28.334Z,14.70
2018-01-06T15:03:28.274Z,11.20
2018-01-06T15:04:28.281Z,17.00
2018-01-06T15:05:28.292Z,14.90
2018-01-06T15:06:37.933Z,12.30
2018-01-06T15:07:28.228Z,11.60
2018-01-06T15:08:28.218Z,13.80
2018-01-06T15:09:28.247Z,15.70
2018-01-06T15:10:28.208Z,13.80
2018-01-06T15:11:28.171Z,16.80
2018-01-06T15:12:28.209Z,13.10
2018-01-06T15:13:28.153Z,12.30
2018-01-06T15:14:28.155Z,15.40
2018-01-06T15:15:28.136Z,14.00
2018-01-06T15:16:28.106Z,14.30
2018-01-06T15:17:28.182Z,12.70
2018-01-06T15:18:28.067Z,11.70
2018-01-06T15:19:28.054Z,13.60
2018-01-06T15:20:28.056Z,15.90
2018-01-06T15:21:28.062Z,16.90
2018-01-06T15:22:28.042Z,11.40
2018-01-06T15:23:28.040Z,14.40
2018-01-06T15:24:27.991Z,13.30
2018-01-06T15:25:28.039Z,14.30
2018-01-06T15:26:27.980Z,13.80
2018-01-06T15:27:27.972Z,12.70
2018-01-06T15:28:27.959Z,15.40
2018-01-06T15:29:27.929Z,12.80
2018-01-06T15:30:38.201Z,12.80
2018-01-06T15:31:27.875Z,15.50
2018-01-06T15:32:27.895Z,16.00
2018-01-06T15:33:27.894Z,14.30
2018-01-06T15:34:28.393Z,15.80
2018-01-06T15:35:27.830Z,15.00
2018-01-06T15:36:27.839Z,14.90
2018-01-06T15:37:27.875Z,15.00
2018-01-06T15:38:27.807Z,15.20
2018-01-06T15:39:27.801Z,12.70
2018-01-06T15:40:27.818Z,15.10
2018-01-06T15:41:27.760Z,13.20
2018-01-06T15:42:27.735Z,12.30
2018-01-06T15:43:27.713Z,14.60
2018-01-06T15:44:27.730Z,17.00
2018-01-06T15:45:27.689Z,16.00
2018-01-06T15:46:27.677Z,16.80
2018-01-06T15:47:27.664Z,14.00
2018-01-06T15:48:27.642Z,15.60
2018-01-06T15:49:27.633Z,13.10
2018-01-06T15:50:27.691Z,14.70
2018-01-06T15:51:27.604Z,14.30
2018-01-06T15:52:27.631Z,11.50
2018-01-06T15:53:27.604Z,15.20
2018-01-06T15:54:27.552Z,281.00
2018-01-06T15:55:27.572Z,13.70
2018-01-06T15:56:27.518Z,13.90
2018-01-06T15:57:27.516Z,13.10
2018-01-06T15:58:27.492Z,13.20
2018-01-06T15:59:27.487Z,15.40
2018-01-06T16:00:27.457Z,12.80
2018-01-06T16:01:27.470Z,15.60
2018-01-06T16:02:27.426Z,15.40
2018-01-06T16:03:27.414Z,15.40
2018-01-06T16:04:27.429Z,14.20
2018-01-06T16:05:27.389Z,14.00
2018-01-06T16:06:27.370Z,13.80
2018-01-06T16:07:27.375Z,14.90
2018-01-06T16:08:27.368Z,13.30
2018-01-06T16:09:27.330Z,14.00
2018-01-06T16:10:27.309Z,15.40
2018-01-06T16:11:27.310Z,13.90
2018-01-06T16:12:27.281Z,14.90
2018-01-06T16:13:27.303Z,14.00
2018-01-06T16:14:27.257Z,17.20
2018-01-06T16:15:27.237Z,14.00
2018-01-06T16:16:27.226Z,13.80
2018-01-06T16:17:27.202Z,13.90
2018-01-06T16:18:27.192Z,14.40
2018-01-06T16:19:27.200Z,14.10
2018-01-06T16:20:27.185Z,14.80
2018-01-06T16:21:27.141Z,16.50
2018-01-06T16:22:27.126Z,15.00
2018-01-06T16:23:27.112Z,17.90
2018-01-06T16:24:27.104Z,17.30
2018-01-06T16:25:27.118Z,16.40
2018-01-06T16:26:27.075Z,17.20
2018-01-06T16:27:27.056Z,17.50
2018-01-06T16:28:27.050Z,15.20
2018-01-06T16:29:27.021Z,18.80
2018-01-06T16:30:27.020Z,15.30
2018-01-06T16:31:27.020Z,16.50
2018-01-06T16:32:26.978Z,17.30
2018-01-06T16:33:26.957Z,16.20
2018-01-06T16:34:26.955Z,17.40
2018-01-06T16:35:26.955Z,18.90
2018-01-06T16:36:27.110Z,19.40
2018-01-06T16:37:27.005Z,18.00
2018-01-06T16:38:26.914Z,16.00
2018-01-06T16:39:26.924Z,15.70
2018-01-06T16:40:26.872Z,16.50
2018-01-06T16:41:26.859Z,16.00
2018-01-06T16:42:26.874Z,14.10
2018-01-06T16:43:26.852Z,17.40
2018-01-06T16:44:26.805Z,16.90
2018-01-06T16:45:26.792Z,20.20
2018-01-06T16:46:26.802Z,18.30
2018-01-06T16:47:26.765Z,17.80
2018-01-06T16:48:26.797Z,19.10
2018-01-06T16:49:26.732Z,17.90
2018-01-06T16:50:26.739Z,19.60
2018-01-06T16:51:26.696Z,17.00
2018-01-06T16:52:26.701Z,19.80
2018-01-06T16:53:26.693Z,18.10
2018-01-06T16:54:26.700Z,16.80
2018-01-06T16:55:26.656Z,19.10
2018-01-06T16:56:26.650Z,21.80
2018-01-06T16:57:26.615Z,26.30
2018-01-06T16:58:26.593Z,19.80
2018-01-06T16:59:26.594Z,20.40
2018-01-06T17:00:26.585Z,21.50
2018-01-06T17:01:26.556Z,18.50
2018-01-06T17:02:26.566Z,20.90
2018-01-06T17:03:26.519Z,20.80
2018-01-06T17:04:26.507Z,21.00
2018-01-06T17:05:26.488Z,21.80
2018-01-06T17:06:26.501Z,20.20
2018-01-06T17:07:26.461Z,20.20
2018-01-06T17:08:26.449Z,21.80
2018-01-06T17:09:26.423Z,20.20
2018-01-06T17:10:26.416Z,21.40
2018-01-06T17:11:26.398Z,24.30
2018-01-06T17:12:26.408Z,22.00
2018-01-06T17:13:26.375Z,21.10
2018-01-06T17:14:26.360Z,21.00
2018-01-06T17:15:26.338Z,26.60
2018-01-06T17:16:26.329Z,19.10
2018-01-06T17:17:26.306Z,21.20
2018-01-06T17:18:26.334Z,20.50
2018-01-06T17:19:26.274Z,23.50
2018-01-06T17:20:26.259Z,23.00
2018-01-06T17:21:26.252Z,24.30
2018-01-06T17:22:26.240Z,19.70
2018-01-06T17:23:26.221Z,19.00
2018-01-06T17:24:26.231Z,22.40
2018-01-06T17:25:26.186Z,22.40
2018-01-06T17:26:26.169Z,23.50
2018-01-06T17:27:26.158Z,20.90
2018-01-06T17:28:26.143Z,18.50
2018-01-06T17:29:26.158Z,19.90
2018-01-06T17:30:26.127Z,18.40
2018-01-06T17:31:26.101Z,22.10
2018-01-06T17:32:26.078Z,20.00
2018-01-06T17:33:26.065Z,21.60
2018-01-06T17:34:26.054Z,19.80
2018-01-06T17:35:26.062Z,19.50
2018-01-06T17:36:26.016Z,22.60
2018-01-06T17:37:26.006Z,21.20
2018-01-06T17:38:26.024Z,22.20
2018-01-06T17:39:25.981Z,20.40
2018-01-06T17:40:25.966Z,20.70
2018-01-06T17:41:25.986Z,16.80
2018-01-06T17:42:25.929Z,21.30
2018-01-06T17:43:25.917Z,20.80
2018-01-06T17:44:25.903Z,19.20
2018-01-06T17:45:25.891Z,19.20
2018-01-06T17:46:25.867Z,18.00
2018-01-06T17:47:25.885Z,21.10
2018-01-06T17:48:25.839Z,22.20
2018-01-06T17:49:25.840Z,19.60
2018-01-06T17:50:25.810Z,18.30
2018-01-06T17:51:25.824Z,20.80
2018-01-06T17:52:25.777Z,20.50
2018-01-06T17:53:25.805Z,18.60
2018-01-06T17:54:25.756Z,22.70
2018-01-06T17:55:25.744Z,19.50
2018-01-06T17:56:25.724Z,22.00
2018-01-06T17:57:25.707Z,23.10
2018-01-06T17:58:25.694Z,21.70
2018-01-06T17:59:25.705Z,21.50
2018-01-06T18:00:25.673Z,20.60
2018-01-06T18:01:25.646Z,21.60
2018-01-06T18:02:25.626Z,20.70
2018-01-06T18:03:25.618Z,17.20
2018-01-06T18:04:25.600Z,19.40
2018-01-06T18:05:25.617Z,20.60
2018-01-06T18:06:25.572Z,19.70
2018-01-06T18:07:25.633Z,19.10
2018-01-06T18:08:25.540Z,21.00
2018-01-06T18:09:25.524Z,19.00
2018-01-06T18:10:25.551Z,17.80
2018-01-06T18:11:25.500Z,23.60
2018-01-06T18:12:26.147Z,20.30
2018-01-06T18:13:25.568Z,23.90
2018-01-06T18:14:25.455Z,18.80
2018-01-06T18:15:25.463Z,20.30
2018-01-06T18:16:25.486Z,19.50
2018-01-06T18:17:25.436Z,20.00
2018-01-06T18:18:25.391Z,20.90
2018-01-06T18:19:25.372Z,17.40
2018-01-06T18:20:25.362Z,18.70
2018-01-06T18:21:25.341Z,21.50
2018-01-06T18:22:25.358Z,19.00
2018-01-06T18:23:25.313Z,16.40
2018-01-06T18:24:25.302Z,20.10
2018-01-06T18:25:25.291Z,19.00
2018-01-06T18:26:25.277Z,19.80
2018-01-06T18:27:25.258Z,19.00
2018-01-06T18:28:25.260Z,19.70
2018-01-06T18:29:25.231Z,20.90
2018-01-06T18:30:25.212Z,21.00
2018-01-06T18:31:25.196Z,20.10
2018-01-06T18:32:25.183Z,19.00
2018-01-06T18:33:25.197Z,19.30
2018-01-06T18:34:25.148Z,19.60
2018-01-06T18:35:25.130Z,19.60
2018-01-06T18:36:25.133Z,20.10
2018-01-06T18:37:25.109Z,21.50
2018-01-06T18:38:25.118Z,17.00
2018-01-06T18:39:25.100Z,20.20
2018-01-06T18:40:25.062Z,23.00
2018-01-06T18:41:25.058Z,18.90
2018-01-06T18:42:25.022Z,18.50
2018-01-06T18:43:25.026Z,20.40
2018-01-06T18:44:25.017Z,19.10
2018-01-06T18:45:24.991Z,22.10
2018-01-06T18:46:24.973Z,23.50
2018-01-06T18:47:24.953Z,21.50
2018-01-06T18:48:24.961Z,19.30
2018-01-06T18:49:24.920Z,22.60
2018-01-06T18:50:24.911Z,22.80
2018-01-06T18:51:24.902Z,20.00
2018-01-06T18:52:24.872Z,24.30
2018-01-06T18:53:24.867Z,22.90
2018-01-06T18:54:24.882Z,20.90
2018-01-06T18:55:24.834Z,21.60
2018-01-06T18:56:24.823Z,20.60
2018-01-06T18:57:24.797Z,22.00
2018-01-06T18:58:24.784Z,20.20
2018-01-06T18:59:24.803Z,19.00
2018-01-06T19:00:24.755Z,20.90
2018-01-06T19:01:24.756Z,18.90
2018-01-06T19:02:24.725Z,22.40
2018-01-06T19:03:24.721Z,23.50
2018-01-06T19:04:24.692Z,21.90
2018-01-06T19:05:24.714Z,22.90
2018-01-06T19:06:24.669Z,22.40
2018-01-06T19:07:24.654Z,20.40
2018-01-06T19:08:24.650Z,25.40
2018-01-06T19:09:24.626Z,22.50
2018-01-06T19:10:24.609Z,21.70
2018-01-06T19:11:24.619Z,22.70
2018-01-06T19:12:24.575Z,25.00
2018-01-06T19:13:24.560Z,20.80
2018-01-06T19:14:24.537Z,20.10
2018-01-06T19:15:24.540Z,23.20
2018-01-06T19:16:24.518Z,24.20
2018-01-06T19:17:24.535Z,24.20
2018-01-06T19:18:24.488Z,20.90
2018-01-06T19:19:24.483Z,21.20
2018-01-06T19:20:24.456Z,23.00
2018-01-06T19:21:24.440Z,25.10
2018-01-06T19:22:24.417Z,23.30
2018-01-06T19:23:24.443Z,20.60
2018-01-06T19:24:24.390Z,27.50
2018-01-06T19:25:24.384Z,27.40
2018-01-06T19:26:24.367Z,24.50
2018-01-06T19:27:24.348Z,26.30
2018-01-06T19:28:24.349Z,24.40
2018-01-06T19:29:24.335Z,21.70
2018-01-06T19:30:24.302Z,22.00
2018-01-06T19:31:24.288Z,21.50
2018-01-06T19:32:24.270Z,22.60
2018-01-06T19:33:24.258Z,20.40
2018-01-06T19:34:24.280Z,23.20
2018-01-06T19:35:24.238Z,20.70
2018-01-06T19:36:24.214Z,23.80
2018-01-06T19:37:24.206Z,22.30
2018-01-06T19:38:24.175Z,24.90
2018-01-06T19:39:24.160Z,25.70
2018-01-06T19:40:24.184Z,22.70
2018-01-06T19:41:24.136Z,25.50
2018-01-06T19:42:24.128Z,25.40
2018-01-06T19:43:24.101Z,24.60
2018-01-06T19:44:24.096Z,23.30
2018-01-06T19:45:24.077Z,23.20
2018-01-06T19:46:24.082Z,26.30
2018-01-06T19:47:24.041Z,23.40
2018-01-06T19:48:24.051Z,21.50
2018-01-06T19:49:24.006Z,27.80
2018-01-06T19:50:24.000Z,26.30
2018-01-06T19:51:23.984Z,26.00
2018-01-06T19:52:23.999Z,25.10
2018-01-06T19:53:23.953Z,24.50
2018-01-06T19:54:23.938Z,25.40
2018-01-06T19:55:23.921Z,25.30
2018-01-06T19:56:23.915Z,26.40
2018-01-06T19:57:23.932Z,23.40
2018-01-06T19:58:23.904Z,24.50
2018-01-06T19:59:23.858Z,28.70
2018-01-06T20:00:23.857Z,25.20
2018-01-06T20:01:23.823Z,28.40
2018-01-06T20:02:23.809Z,26.20
2018-01-06T20:03:23.803Z,26.80
2018-01-06T20:04:23.813Z,28.50
2018-01-06T20:05:23.770Z,31.40
2018-01-06T20:06:23.757Z,28.40
2018-01-06T20:07:23.738Z,29.10
2018-01-06T20:08:23.719Z,28.60
2018-01-06T20:09:23.703Z,27.20
2018-01-06T20:10:23.720Z,29.90
2018-01-06T20:11:23.671Z,26.40
2018-01-06T20:12:23.662Z,34.70
2018-01-06T20:13:23.646Z,30.10
2018-01-06T20:14:23.641Z,30.20
2018-01-06T20:15:23.608Z,33.00
2018-01-06T20:16:23.623Z,30.60
2018-01-06T20:17:23.602Z,30.00
2018-01-06T20:18:23.572Z,32.20
2018-01-06T20:19:23.558Z,30.60
2018-01-06T20:20:23.541Z,32.90
2018-01-06T20:21:23.556Z,31.40
2018-01-06T20:22:23.503Z,32.70
2018-01-06T20:23:23.505Z,33.70
2018-01-06T20:24:23.480Z,32.30
2018-01-06T20:25:23.471Z,34.30
2018-01-06T20:26:23.447Z,34.60
2018-01-06T20:27:23.461Z,35.70
2018-01-06T20:28:23.414Z,34.50
2018-01-06T20:29:23.408Z,37.80
2018-01-06T20:30:23.392Z,34.20
2018-01-06T20:31:23.375Z,35.20
2018-01-06T20:32:23.385Z,34.00
2018-01-06T20:33:23.337Z,39.80
2018-01-06T20:34:23.317Z,35.70
2018-01-06T20:35:23.300Z,37.60
2018-01-06T20:36:23.295Z,36.00
2018-01-06T20:37:23.281Z,37.70
2018-01-06T20:38:23.287Z,39.20
2018-01-06T20:39:23.252Z,35.40
2018-01-06T20:40:23.235Z,38.80
2018-01-06T20:41:23.214Z,36.20
2018-01-06T20:42:23.196Z,36.90
2018-01-06T20:43:23.209Z,32.10
2018-01-06T20:44:23.173Z,37.20
2018-01-06T20:45:23.158Z,37.30
2018-01-06T20:46:23.143Z,37.20
2018-01-06T20:47:23.120Z,38.30
2018-01-06T20:48:23.114Z,36.20
2018-01-06T20:49:23.123Z,40.10
2018-01-06T20:50:23.082Z,37.10
2018-01-06T20:51:23.066Z,39.20
2018-01-06T20:52:23.057Z,37.70
2018-01-06T20:53:23.040Z,39.10
2018-01-06T20:54:23.012Z,38.80
2018-01-06T20:55:23.021Z,39.90
2018-01-06T20:56:22.994Z,40.80
2018-01-06T20:57:22.976Z,41.10
2018-01-06T20:58:22.952Z,41.40
2018-01-06T20:59:22.951Z,43.90
2018-01-06T21:00:22.953Z,44.50
2018-01-06T21:01:22.907Z,41.80
2018-01-06T21:02:22.895Z,42.20
2018-01-06T21:03:22.878Z,42.00
2018-01-06T21:04:22.860Z,42.60
2018-01-06T21:05:22.855Z,45.80
2018-01-06T21:06:22.860Z,43.60
2018-01-06T21:07:22.816Z,50.20
2018-01-06T21:08:22.809Z,46.50
2018-01-06T21:09:22.780Z,48.80
2018-01-06T21:10:22.771Z,44.80
2018-01-06T21:11:22.747Z,46.50
2018-01-06T21:12:22.774Z,47.40
2018-01-06T21:13:22.727Z,57.60
2018-01-06T21:14:22.707Z,51.60
2018-01-06T21:15:22.687Z,52.50
2018-01-06T21:16:22.676Z,51.70
2018-01-06T21:17:22.661Z,55.30
2018-01-06T21:18:22.668Z,58.30
2018-01-06T21:19:22.631Z,57.30
2018-01-06T21:20:22.612Z,57.60
2018-01-06T21:21:22.600Z,55.50
2018-01-06T21:22:22.574Z,58.90
2018-01-06T21:23:22.571Z,60.60
2018-01-06T21:24:22.575Z,57.30
2018-01-06T21:25:22.541Z,66.00
2018-01-06T21:26:22.526Z,61.50
2018-01-06T21:27:22.500Z,57.90
2018-01-06T21:28:22.484Z,61.10
2018-01-06T21:29:22.494Z,58.20
2018-01-06T21:30:22.458Z,65.40
2018-01-06T21:31:22.437Z,65.40
2018-01-06T21:32:22.427Z,63.40
2018-01-06T21:33:22.433Z,61.80
2018-01-06T21:34:22.430Z,61.40
2018-01-06T21:35:22.371Z,61.80
2018-01-06T21:36:22.369Z,60.50
2018-01-06T21:37:22.364Z,61.70
2018-01-06T21:38:22.339Z,65.80
2018-01-06T21:39:22.344Z,62.70
2018-01-06T21:40:22.294Z,61.50
2018-01-06T21:41:22.289Z,63.50
2018-01-06T21:42:22.270Z,61.40
2018-01-06T21:43:22.257Z,68.80
2018-01-06T21:44:22.258Z,62.70
2018-01-06T21:45:22.223Z,62.80
2018-01-06T21:46:22.206Z,63.40
2018-01-06T21:47:22.187Z,65.50
2018-01-06T21:48:22.171Z,64.20
2018-01-06T21:49:22.188Z,67.10
2018-01-06T21:50:22.142Z,66.80
2018-01-06T21:51:22.130Z,65.40
2018-01-06T21:52:22.114Z,67.00
2018-01-06T21:53:22.098Z,65.50
2018-01-06T21:54:22.077Z,64.60
2018-01-06T21:55:22.086Z,62.80
2018-01-06T21:56:22.052Z,69.80
2018-01-06T21:57:22.034Z,70.20
2018-01-06T21:58:22.013Z,66.40
2018-01-06T21:59:21.999Z,66.10
2018-01-06T22:00:22.023Z,66.80
2018-01-06T22:01:21.972Z,61.80
2018-01-06T22:02:21.951Z,69.10
2018-01-06T22:03:21.941Z,68.60
2018-01-06T22:04:21.929Z,68.60
2018-01-06T22:05:21.903Z,68.90
2018-01-06T22:06:21.915Z,64.80
2018-01-06T22:07:21.871Z,69.80
2018-01-06T22:08:21.858Z,69.70
2018-01-06T22:09:21.848Z,69.40
2018-01-06T22:10:21.831Z,74.30
2018-01-06T22:11:21.839Z,72.60
2018-01-06T22:12:21.794Z,66.90
2018-01-06T22:13:21.780Z,70.60
2018-01-06T22:14:21.762Z,70.70
2018-01-06T22:15:21.757Z,70.20
2018-01-06T22:16:21.754Z,66.60
2018-01-06T22:17:21.723Z,71.30
2018-01-06T22:18:21.707Z,67.40
2018-01-06T22:19:21.691Z,68.10
2018-01-06T22:20:21.673Z,66.50
2018-01-06T22:21:21.691Z,66.90
2018-01-06T22:22:21.642Z,67.10
2018-01-06T22:23:21.625Z,67.20
2018-01-06T22:24:21.605Z,62.70
2018-01-06T22:25:21.601Z,67.80
2018-01-06T22:26:21.574Z,66.80
2018-01-06T22:27:21.593Z,63.80
2018-01-06T22:28:21.546Z,63.50
2018-01-06T22:29:21.528Z,65.40
2018-01-06T22:30:21.568Z,64.20
2018-01-06T22:31:21.503Z,61.60
2018-01-06T22:32:21.522Z,66.90
2018-01-06T22:33:21.475Z,63.70
2018-01-06T22:34:21.455Z,62.20
2018-01-06T22:35:21.439Z,60.20
2018-01-06T22:36:21.425Z,58.10
2018-01-06T22:37:21.404Z,58.80
2018-01-06T22:38:21.430Z,60.50
2018-01-06T22:39:21.375Z,60.90
2018-01-06T22:40:21.355Z,60.30
2018-01-06T22:41:21.349Z,56.20
2018-01-06T22:42:21.336Z,58.70
2018-01-06T22:43:21.317Z,59.30
2018-01-06T22:44:21.327Z,54.10
2018-01-06T22:45:21.286Z,57.10
2018-01-06T22:46:21.271Z,56.20
2018-01-06T22:47:21.248Z,51.50
2018-01-06T22:48:21.240Z,54.80
2018-01-06T22:49:21.222Z,51.60
2018-01-06T22:50:21.233Z,54.00
2018-01-06T22:51:21.192Z,51.00
2018-01-06T22:52:21.171Z,52.20
2018-01-06T22:53:21.163Z,50.00
2018-01-06T22:54:21.138Z,51.90
2018-01-06T22:55:21.130Z,50.20
2018-01-06T22:56:21.140Z,52.60
2018-01-06T22:57:21.098Z,51.20
2018-01-06T22:58:21.079Z,53.70
2018-01-06T22:59:21.069Z,51.80
2018-01-06T23:00:21.047Z,56.70
2018-01-06T23:01:21.029Z,50.70
2018-01-06T23:02:21.047Z,51.90
2018-01-06T23:03:21.000Z,51.00
2018-01-06T23:04:20.990Z,52.10
2018-01-06T23:05:20.977Z,52.50
2018-01-06T23:06:20.958Z,49.60
2018-01-06T23:07:20.968Z,49.40
2018-01-06T23:08:20.930Z,49.50
2018-01-06T23:09:20.911Z,52.40
2018-01-06T23:10:20.892Z,49.60
2018-01-06T23:11:20.870Z,52.00
2018-01-06T23:12:20.862Z,55.80
2018-01-06T23:13:20.865Z,57.00
2018-01-06T23:14:20.828Z,55.50
2018-01-06T23:15:20.806Z,56.70
2018-01-06T23:16:20.806Z,58.00
2018-01-06T23:17:20.785Z,57.40
2018-01-06T23:18:20.766Z,58.60
2018-01-06T23:19:20.784Z,57.40
2018-01-06T23:20:20.746Z,58.20
2018-01-06T23:21:20.715Z,56.90
2018-01-06T23:22:20.697Z,54.60
2018-01-06T23:23:20.688Z,57.40
2018-01-06T23:24:20.666Z,55.20
2018-01-06T23:25:20.701Z,57.10
2018-01-06T23:26:20.639Z,55.70
2018-01-06T23:27:20.626Z,59.10
2018-01-06T23:28:20.607Z,56.20
2018-01-06T23:29:20.586Z,56.10
2018-01-06T23:30:20.578Z,56.70
2018-01-06T23:31:20.581Z,56.80
2018-01-06T23:32:20.540Z,53.80
2018-01-06T23:33:20.534Z,55.00
2018-01-06T23:34:20.510Z,58.10
2018-01-06T23:35:20.501Z,56.60
2018-01-06T23:36:20.484Z,58.00
2018-01-06T23:37:20.495Z,58.20
2018-01-06T23:38:20.447Z,55.60
2018-01-06T23:39:20.440Z,54.70
2018-01-06T23:40:20.418Z,57.80
2018-01-06T23:41:20.405Z,51.80
2018-01-06T23:42:20.391Z,52.10
2018-01-06T23:43:20.400Z,47.20
2018-01-06T23:44:20.354Z,51.00
2018-01-06T23:45:20.341Z,49.90
2018-01-06T23:46:20.322Z,52.00
2018-01-06T23:47:20.303Z,49.20
2018-01-06T23:48:20.297Z,46.90
2018-01-06T23:49:20.297Z,48.60
2018-01-06T23:50:20.263Z,48.20
2018-01-06T23:51:20.245Z,47.50
2018-01-06T23:52:20.237Z,46.80
2018-01-06T23:53:20.213Z,46.50
2018-01-06T23:54:20.237Z,49.80
2018-01-06T23:55:20.197Z,49.80
2018-01-06T23:56:20.170Z,49.90
2018-01-06T23:57:20.161Z,50.30
2018-01-06T23:58:20.143Z,50.40
2018-01-06T23:59:20.117Z,49.10
